Cape Porpoise, Maine
Current Conditions -  °F | °C
As of 8:15 PM on Saturday 22 Nov 2014 (Local Time) from KSFM Reporting Station
Few Clouds Few Clouds  
Wind Chill: 33°   Ceiling: Unl
Heat Index: 37°   Visibility: 10mi
Dew Point: 10°   Wind: 6mph
Humidity: 33%   Direction: 200°SSW
Pressure: 29.99"   Gusts: NA
Location:  43.37°N, 70.44°W
Report Text: KSFM 230115Z AUTO 20005KT 10SM FEW065 03/M12 A2999 RMK AO1
Loading
Personal Weather Stations






























Interactive Weather Map New forecast layout! Learn more

10-Day Weather Forecast

Advertisements
Track Severe Weather on mobile